sensor_id;sensor_type;location;lat;lon;timestamp;pressure;altitude;pressure_sealevel;temperature;humidity
39954;BME280;25631;51.516;-0.470;2022-12-18T00:00:40;102023.41;;;-1.58;37.92
39954;BME280;25631;51.516;-0.470;2022-12-18T00:03:16;102014.08;;;-1.32;37.68
39954;BME280;25631;51.516;-0.470;2022-12-18T00:05:52;102011.83;;;-1.21;37.74
39954;BME280;25631;51.516;-0.470;2022-12-18T00:08:29;102001.39;;;-1.26;37.87
39954;BME280;25631;51.516;-0.470;2022-12-18T00:11:06;101993.60;;;-1.38;37.93
39954;BME280;25631;51.516;-0.470;2022-12-18T00:13:44;101992.41;;;-1.26;38.12
39954;BME280;25631;51.516;-0.470;2022-12-18T00:16:22;101993.22;;;-1.22;38.11
39954;BME280;25631;51.516;-0.470;2022-12-18T00:19:00;101993.46;;;-1.37;38.20
39954;BME280;25631;51.516;-0.470;2022-12-18T00:21:36;101992.79;;;-1.05;38.27
39954;BME280;25631;51.516;-0.470;2022-12-18T00:24:13;101984.52;;;-1.05;38.29
39954;BME280;25631;51.516;-0.470;2022-12-18T00:26:49;101981.34;;;-1.30;38.27
39954;BME280;25631;51.516;-0.470;2022-12-18T00:29:25;101985.99;;;-1.45;38.39
39954;BME280;25631;51.516;-0.470;2022-12-18T00:32:02;101989.21;;;-1.39;38.55
39954;BME280;25631;51.516;-0.470;2022-12-18T00:34:39;101988.65;;;-1.48;38.62
39954;BME280;25631;51.516;-0.470;2022-12-18T00:37:15;101989.64;;;-1.28;38.63
39954;BME280;25631;51.516;-0.470;2022-12-18T00:39:52;101983.28;;;-0.97;38.66
39954;BME280;25631;51.516;-0.470;2022-12-18T00:42:28;101981.70;;;-1.28;38.71
39954;BME280;25631;51.516;-0.470;2022-12-18T00:45:06;101984.20;;;-1.41;38.72
39954;BME280;25631;51.516;-0.470;2022-12-18T00:47:42;101985.75;;;-1.22;38.78
39954;BME280;25631;51.516;-0.470;2022-12-18T00:50:19;101983.32;;;-1.33;38.82
39954;BME280;25631;51.516;-0.470;2022-12-18T00:52:55;101980.37;;;-1.46;38.83
39954;BME280;25631;51.516;-0.470;2022-12-18T00:55:32;101975.99;;;-1.60;38.88
39954;BME280;25631;51.516;-0.470;2022-12-18T00:58:09;101967.95;;;-1.40;38.98
39954;BME280;25631;51.516;-0.470;2022-12-18T01:00:46;101963.11;;;-1.39;38.97
39954;BME280;25631;51.516;-0.470;2022-12-18T01:03:22;101964.04;;;-1.34;38.92
39954;BME280;25631;51.516;-0.470;2022-12-18T01:05:59;101962.92;;;-1.34;38.75
39954;BME280;25631;51.516;-0.470;2022-12-18T01:08:36;101961.64;;;-1.39;38.78
39954;BME280;25631;51.516;-0.470;2022-12-18T01:11:15;101959.60;;;-1.34;38.81
39954;BME280;25631;51.516;-0.470;2022-12-18T01:13:53;101959.24;;;-1.24;38.81
39954;BME280;25631;51.516;-0.470;2022-12-18T01:16:29;101959.99;;;-1.58;38.84
39954;BME280;25631;51.516;-0.470;2022-12-18T01:19:06;101957.80;;;-1.36;38.84
39954;BME280;25631;51.516;-0.470;2022-12-18T01:21:43;101948.71;;;-1.69;38.88
39954;BME280;25631;51.516;-0.470;2022-12-18T01:24:19;101944.44;;;-1.39;38.92
39954;BME280;25631;51.516;-0.470;2022-12-18T01:26:55;101941.12;;;-1.18;38.92
39954;BME280;25631;51.516;-0.470;2022-12-18T01:29:32;101935.73;;;-1.41;38.96
39954;BME280;25631;51.516;-0.470;2022-12-18T01:32:08;101933.14;;;-1.60;39.00
39954;BME280;25631;51.516;-0.470;2022-12-18T01:34:45;101934.27;;;-1.42;38.99
39954;BME280;25631;51.516;-0.470;2022-12-18T01:37:22;101931.12;;;-1.39;39.06
39954;BME280;25631;51.516;-0.470;2022-12-18T01:39:58;101926.66;;;-1.41;39.07
39954;BME280;25631;51.516;-0.470;2022-12-18T01:42:35;101920.23;;;-1.64;39.08
39954;BME280;25631;51.516;-0.470;2022-12-18T01:45:28;101915.15;;;-1.48;39.08
39954;BME280;25631;51.516;-0.470;2022-12-18T01:48:06;101915.07;;;-1.42;39.14
39954;BME280;25631;51.516;-0.470;2022-12-18T01:50:44;101914.70;;;-1.39;39.21
39954;BME280;25631;51.516;-0.470;2022-12-18T01:53:22;101912.16;;;-1.47;39.30
39954;BME280;25631;51.516;-0.470;2022-12-18T01:55:59;101906.93;;;-1.74;39.32
39954;BME280;25631;51.516;-0.470;2022-12-18T01:58:49;101910.43;;;-1.11;39.37
39954;BME280;25631;51.516;-0.470;2022-12-18T02:01:29;101920.59;;;-1.11;39.36
39954;BME280;25631;51.516;-0.470;2022-12-18T02:04:21;101923.28;;;-1.38;39.37
39954;BME280;25631;51.516;-0.470;2022-12-18T02:07:10;101927.14;;;-1.44;39.24
39954;BME280;25631;51.516;-0.470;2022-12-18T02:09:52;101929.40;;;-1.43;39.18
39954;BME280;25631;51.516;-0.470;2022-12-18T02:12:38;101931.58;;;-1.54;39.18
39954;BME280;25631;51.516;-0.470;2022-12-18T02:15:23;101935.94;;;-1.35;39.23
39954;BME280;25631;51.516;-0.470;2022-12-18T02:18:06;101945.60;;;-1.55;39.21
39954;BME280;25631;51.516;-0.470;2022-12-18T02:20:47;101946.13;;;-1.54;39.34
39954;BME280;25631;51.516;-0.470;2022-12-18T02:23:37;101947.45;;;-1.24;39.35
39954;BME280;25631;51.516;-0.470;2022-12-18T02:26:19;101942.22;;;-1.23;39.29
39954;BME280;25631;51.516;-0.470;2022-12-18T02:29:02;101937.51;;;-1.44;39.27
39954;BME280;25631;51.516;-0.470;2022-12-18T02:31:44;101941.15;;;-1.34;39.27
39954;BME280;25631;51.516;-0.470;2022-12-18T02:34:25;101946.12;;;-1.46;39.20
39954;BME280;25631;51.516;-0.470;2022-12-18T02:37:06;101957.74;;;-1.66;39.24
39954;BME280;25631;51.516;-0.470;2022-12-18T02:39:46;101961.04;;;-1.45;39.28
39954;BME280;25631;51.516;-0.470;2022-12-18T02:42:24;101960.07;;;-1.32;39.25
39954;BME280;25631;51.516;-0.470;2022-12-18T02:45:02;101955.78;;;-1.32;39.23
39954;BME280;25631;51.516;-0.470;2022-12-18T02:47:42;101957.30;;;-1.46;39.15
39954;BME280;25631;51.516;-0.470;2022-12-18T02:50:24;101958.51;;;-1.36;39.09
39954;BME280;25631;51.516;-0.470;2022-12-18T02:53:10;101963.37;;;-1.55;39.02
39954;BME280;25631;51.516;-0.470;2022-12-18T02:56:00;101963.84;;;-1.47;39.02
39954;BME280;25631;51.516;-0.470;2022-12-18T02:58:46;101955.99;;;-1.25;38.97
39954;BME280;25631;51.516;-0.470;2022-12-18T03:01:34;101951.33;;;-1.15;38.88
39954;BME280;25631;51.516;-0.470;2022-12-18T03:04:16;101941.24;;;-1.50;38.86
39954;BME280;25631;51.516;-0.470;2022-12-18T03:06:57;101937.44;;;-1.50;38.86
39954;BME280;25631;51.516;-0.470;2022-12-18T03:09:37;101930.89;;;-1.44;38.86
39954;BME280;25631;51.516;-0.470;2022-12-18T03:12:19;101923.66;;;-1.26;38.94
39954;BME280;25631;51.516;-0.470;2022-12-18T03:15:02;101918.31;;;-1.38;39.03
39954;BME280;25631;51.516;-0.470;2022-12-18T03:17:44;101916.11;;;-1.39;39.10
39954;BME280;25631;51.516;-0.470;2022-12-18T03:20:25;101907.32;;;-1.44;38.96
39954;BME280;25631;51.516;-0.470;2022-12-18T03:23:09;101904.85;;;-1.49;39.02
39954;BME280;25631;51.516;-0.470;2022-12-18T03:25:46;101904.24;;;-1.44;39.19
39954;BME280;25631;51.516;-0.470;2022-12-18T03:28:27;101899.86;;;-1.55;39.30
39954;BME280;25631;51.516;-0.470;2022-12-18T03:31:10;101894.53;;;-1.24;39.30
39954;BME280;25631;51.516;-0.470;2022-12-18T03:33:53;101892.17;;;-1.33;39.33
39954;BME280;25631;51.516;-0.470;2022-12-18T03:36:30;101898.79;;;-1.29;39.34
39954;BME280;25631;51.516;-0.470;2022-12-18T03:39:07;101914.42;;;-1.50;39.35
39954;BME280;25631;51.516;-0.470;2022-12-18T03:41:45;101918.34;;;-1.40;39.34
39954;BME280;25631;51.516;-0.470;2022-12-18T03:44:29;101910.50;;;-1.36;39.27
39954;BME280;25631;51.516;-0.470;2022-12-18T03:47:09;101901.88;;;-1.33;39.14
39954;BME280;25631;51.516;-0.470;2022-12-18T03:49:53;101894.22;;;-1.64;39.08
39954;BME280;25631;51.516;-0.470;2022-12-18T03:52:38;101883.36;;;-1.51;39.09
39954;BME280;25631;51.516;-0.470;2022-12-18T03:55:18;101874.24;;;-1.36;39.14
39954;BME280;25631;51.516;-0.470;2022-12-18T03:57:56;101869.50;;;-1.36;39.23
39954;BME280;25631;51.516;-0.470;2022-12-18T04:00:34;101872.56;;;-1.57;39.38
39954;BME280;25631;51.516;-0.470;2022-12-18T04:03:11;101874.17;;;-1.35;39.40
39954;BME280;25631;51.516;-0.470;2022-12-18T04:05:50;101883.50;;;-1.42;39.39
39954;BME280;25631;51.516;-0.470;2022-12-18T04:08:27;101884.12;;;-1.37;39.43
39954;BME280;25631;51.516;-0.470;2022-12-18T04:11:05;101883.53;;;-1.65;39.34
39954;BME280;25631;51.516;-0.470;2022-12-18T04:13:42;101876.03;;;-1.35;39.30
39954;BME280;25631;51.516;-0.470;2022-12-18T04:16:19;101875.32;;;-1.34;39.22
39954;BME280;25631;51.516;-0.470;2022-12-18T04:18:55;101869.79;;;-1.14;39.24
39954;BME280;25631;51.516;-0.470;2022-12-18T04:21:31;101871.46;;;-1.34;39.14
39954;BME280;25631;51.516;-0.470;2022-12-18T04:24:08;101872.22;;;-1.65;39.07
39954;BME280;25631;51.516;-0.470;2022-12-18T04:26:44;101872.81;;;-1.33;39.11
39954;BME280;25631;51.516;-0.470;2022-12-18T04:29:21;101867.23;;;-1.56;39.22
39954;BME280;25631;51.516;-0.470;2022-12-18T04:31:57;101865.35;;;-1.27;39.21
39954;BME280;25631;51.516;-0.470;2022-12-18T04:34:34;101864.79;;;-1.60;39.30
39954;BME280;25631;51.516;-0.470;2022-12-18T04:37:11;101865.51;;;-1.30;39.42
39954;BME280;25631;51.516;-0.470;2022-12-18T04:39:47;101861.27;;;-1.47;39.58
39954;BME280;25631;51.516;-0.470;2022-12-18T04:42:23;101863.64;;;-1.40;39.63
39954;BME280;25631;51.516;-0.470;2022-12-18T04:45:00;101861.72;;;-1.46;39.59
39954;BME280;25631;51.516;-0.470;2022-12-18T04:47:36;101853.45;;;-1.39;39.59
39954;BME280;25631;51.516;-0.470;2022-12-18T04:50:13;101842.95;;;-1.50;39.53
39954;BME280;25631;51.516;-0.470;2022-12-18T04:52:50;101837.68;;;-1.37;39.46
39954;BME280;25631;51.516;-0.470;2022-12-18T04:55:27;101826.23;;;-1.48;39.50
39954;BME280;25631;51.516;-0.470;2022-12-18T04:58:03;101821.76;;;-1.16;39.50
39954;BME280;25631;51.516;-0.470;2022-12-18T05:00:40;101817.63;;;-1.47;39.53
39954;BME280;25631;51.516;-0.470;2022-12-18T05:03:16;101815.06;;;-1.32;39.45
39954;BME280;25631;51.516;-0.470;2022-12-18T05:05:53;101811.63;;;-1.29;39.48
39954;BME280;25631;51.516;-0.470;2022-12-18T05:08:30;101809.32;;;-1.38;39.43
39954;BME280;25631;51.516;-0.470;2022-12-18T05:11:08;101803.69;;;-1.19;39.41
39954;BME280;25631;51.516;-0.470;2022-12-18T05:13:45;101796.76;;;-1.10;39.38
39954;BME280;25631;51.516;-0.470;2022-12-18T05:16:22;101789.07;;;-1.14;39.36
39954;BME280;25631;51.516;-0.470;2022-12-18T05:18:58;101776.30;;;-1.34;39.38
39954;BME280;25631;51.516;-0.470;2022-12-18T05:21:35;101767.95;;;-1.07;39.44
39954;BME280;25631;51.516;-0.470;2022-12-18T05:24:11;101761.17;;;-1.23;39.55
39954;BME280;25631;51.516;-0.470;2022-12-18T05:26:48;101770.04;;;-1.35;39.66
39954;BME280;25631;51.516;-0.470;2022-12-18T05:29:24;101764.38;;;-1.31;39.67
39954;BME280;25631;51.516;-0.470;2022-12-18T05:32:01;101754.92;;;-1.31;39.65
39954;BME280;25631;51.516;-0.470;2022-12-18T05:34:38;101748.37;;;-0.98;39.70
39954;BME280;25631;51.516;-0.470;2022-12-18T05:37:14;101743.43;;;-1.37;39.70
39954;BME280;25631;51.516;-0.470;2022-12-18T05:39:51;101744.87;;;-1.26;39.87
39954;BME280;25631;51.516;-0.470;2022-12-18T05:42:27;101740.21;;;-1.25;40.01
39954;BME280;25631;51.516;-0.470;2022-12-18T05:45:05;101742.43;;;-1.52;40.05
39954;BME280;25631;51.516;-0.470;2022-12-18T05:47:41;101744.59;;;-1.39;40.11
39954;BME280;25631;51.516;-0.470;2022-12-18T05:50:18;101745.56;;;-1.40;40.27
39954;BME280;25631;51.516;-0.470;2022-12-18T05:52:54;101735.79;;;-1.26;40.32
39954;BME280;25631;51.516;-0.470;2022-12-18T05:55:33;101731.16;;;-1.28;40.42
39954;BME280;25631;51.516;-0.470;2022-12-18T05:58:11;101731.66;;;-1.23;40.42
39954;BME280;25631;51.516;-0.470;2022-12-18T06:00:47;101727.68;;;-1.50;40.45
39954;BME280;25631;51.516;-0.470;2022-12-18T06:03:24;101720.05;;;-1.18;40.45
39954;BME280;25631;51.516;-0.470;2022-12-18T06:06:01;101718.79;;;-1.32;40.52
39954;BME280;25631;51.516;-0.470;2022-12-18T06:08:37;101723.76;;;-1.32;40.45
39954;BME280;25631;51.516;-0.470;2022-12-18T06:11:17;101721.36;;;-1.24;40.52
39954;BME280;25631;51.516;-0.470;2022-12-18T06:13:56;101716.37;;;-1.24;40.57
39954;BME280;25631;51.516;-0.470;2022-12-18T06:16:32;101704.16;;;-1.28;40.63
39954;BME280;25631;51.516;-0.470;2022-12-18T06:19:15;101692.80;;;-1.22;40.75
39954;BME280;25631;51.516;-0.470;2022-12-18T06:21:51;101683.65;;;-1.24;40.81
39954;BME280;25631;51.516;-0.470;2022-12-18T06:24:28;101672.41;;;-1.01;40.83
39954;BME280;25631;51.516;-0.470;2022-12-18T06:27:05;101668.03;;;-1.17;40.89
39954;BME280;25631;51.516;-0.470;2022-12-18T06:29:41;101665.35;;;-1.03;41.09
39954;BME280;25631;51.516;-0.470;2022-12-18T06:32:18;101659.68;;;-1.35;41.02
39954;BME280;25631;51.516;-0.470;2022-12-18T06:34:54;101654.37;;;-1.18;41.06
39954;BME280;25631;51.516;-0.470;2022-12-18T06:37:31;101651.21;;;-1.30;41.12
39954;BME280;25631;51.516;-0.470;2022-12-18T06:40:08;101645.46;;;-1.23;41.20
39954;BME280;25631;51.516;-0.470;2022-12-18T06:42:45;101652.23;;;-1.15;41.48
39954;BME280;25631;51.516;-0.470;2022-12-18T06:45:21;101651.95;;;-1.12;41.56
39954;BME280;25631;51.516;-0.470;2022-12-18T06:47:57;101655.76;;;-1.09;41.48
39954;BME280;25631;51.516;-0.470;2022-12-18T06:50:34;101658.64;;;-1.16;41.61
39954;BME280;25631;51.516;-0.470;2022-12-18T06:53:10;101662.69;;;-1.05;41.49
39954;BME280;25631;51.516;-0.470;2022-12-18T06:55:47;101664.28;;;-1.12;41.44
39954;BME280;25631;51.516;-0.470;2022-12-18T06:58:23;101662.52;;;-1.22;41.65
39954;BME280;25631;51.516;-0.470;2022-12-18T07:01:00;101659.27;;;-1.12;41.67
39954;BME280;25631;51.516;-0.470;2022-12-18T07:03:37;101653.88;;;-1.09;41.55
39954;BME280;25631;51.516;-0.470;2022-12-18T07:06:15;101647.45;;;-0.98;41.59
39954;BME280;25631;51.516;-0.470;2022-12-18T07:08:53;101648.94;;;-1.03;41.56
39954;BME280;25631;51.516;-0.470;2022-12-18T07:11:31;101649.24;;;-0.89;41.48
39954;BME280;25631;51.516;-0.470;2022-12-18T07:14:08;101641.14;;;-0.81;41.44
39954;BME280;25631;51.516;-0.470;2022-12-18T07:16:44;101643.30;;;-0.66;41.44
39954;BME280;25631;51.516;-0.470;2022-12-18T07:19:23;101642.77;;;-0.61;41.33
39954;BME280;25631;51.516;-0.470;2022-12-18T07:22:00;101641.03;;;-0.51;41.21
39954;BME280;25631;51.516;-0.470;2022-12-18T07:24:37;101639.48;;;-0.62;41.12
39954;BME280;25631;51.516;-0.470;2022-12-18T07:27:13;101633.15;;;-0.36;41.11
39954;BME280;25631;51.516;-0.470;2022-12-18T07:29:50;101621.26;;;-0.29;41.11
39954;BME280;25631;51.516;-0.470;2022-12-18T07:32:26;101615.94;;;-0.33;40.99
39954;BME280;25631;51.516;-0.470;2022-12-18T07:35:04;101610.46;;;-0.41;40.87
39954;BME280;25631;51.516;-0.470;2022-12-18T07:37:40;101609.27;;;-0.31;40.94
39954;BME280;25631;51.516;-0.470;2022-12-18T07:40:17;101606.92;;;-0.30;40.93
39954;BME280;25631;51.516;-0.470;2022-12-18T07:42:53;101606.14;;;-0.45;41.01
39954;BME280;25631;51.516;-0.470;2022-12-18T07:45:29;101604.66;;;-0.26;41.01
39954;BME280;25631;51.516;-0.470;2022-12-18T07:48:06;101603.31;;;-0.17;41.00
39954;BME280;25631;51.516;-0.470;2022-12-18T07:50:43;101603.33;;;-0.33;40.90
39954;BME280;25631;51.516;-0.470;2022-12-18T07:53:19;101602.88;;;-0.17;40.86
39954;BME280;25631;51.516;-0.470;2022-12-18T07:55:56;101598.69;;;-0.15;40.88
39954;BME280;25631;51.516;-0.470;2022-12-18T07:58:34;101593.63;;;-0.25;40.92
39954;BME280;25631;51.516;-0.470;2022-12-18T08:01:11;101589.74;;;-0.14;40.92
39954;BME280;25631;51.516;-0.470;2022-12-18T08:03:48;101581.30;;;-0.11;40.89
39954;BME280;25631;51.516;-0.470;2022-12-18T08:06:24;101580.78;;;-0.46;40.88
39954;BME280;25631;51.516;-0.470;2022-12-18T08:09:02;101588.63;;;-0.21;40.94
39954;BME280;25631;51.516;-0.470;2022-12-18T08:11:38;101597.78;;;-0.45;40.95
39954;BME280;25631;51.516;-0.470;2022-12-18T08:14:15;101601.97;;;-0.05;40.95
39954;BME280;25631;51.516;-0.470;2022-12-18T08:16:52;101599.11;;;-0.09;40.84
39954;BME280;25631;51.516;-0.470;2022-12-18T08:19:29;101600.68;;;-0.19;40.79
39954;BME280;25631;51.516;-0.470;2022-12-18T08:22:05;101600.43;;;-0.15;40.81
39954;BME280;25631;51.516;-0.470;2022-12-18T08:24:42;101597.62;;;-0.03;40.83
39954;BME280;25631;51.516;-0.470;2022-12-18T08:27:18;101598.02;;;-0.38;40.84
39954;BME280;25631;51.516;-0.470;2022-12-18T08:29:55;101604.02;;;-0.03;40.81
39954;BME280;25631;51.516;-0.470;2022-12-18T08:32:31;101607.49;;;-0.18;40.79
39954;BME280;25631;51.516;-0.470;2022-12-18T08:35:08;101610.41;;;-0.12;40.85
39954;BME280;25631;51.516;-0.470;2022-12-18T08:37:45;101613.01;;;-0.08;40.98
39954;BME280;25631;51.516;-0.470;2022-12-18T08:40:22;101616.77;;;-0.27;41.02
39954;BME280;25631;51.516;-0.470;2022-12-18T08:42:58;101619.03;;;-0.02;41.09
39954;BME280;25631;51.516;-0.470;2022-12-18T08:45:34;101614.42;;;-0.23;41.04
39954;BME280;25631;51.516;-0.470;2022-12-18T08:48:11;101609.10;;;-0.15;41.02
39954;BME280;25631;51.516;-0.470;2022-12-18T08:50:54;101604.32;;;0.05;41.03
39954;BME280;25631;51.516;-0.470;2022-12-18T08:53:31;101605.02;;;-0.15;41.11
39954;BME280;25631;51.516;-0.470;2022-12-18T08:56:08;101607.11;;;-0.18;41.15
39954;BME280;25631;51.516;-0.470;2022-12-18T08:58:44;101608.22;;;0.14;41.16
39954;BME280;25631;51.516;-0.470;2022-12-18T09:01:21;101608.36;;;-0.29;41.14
39954;BME280;25631;51.516;-0.470;2022-12-18T09:03:58;101600.71;;;-0.10;41.16
39954;BME280;25631;51.516;-0.470;2022-12-18T09:06:34;101593.68;;;-0.05;41.03
39954;BME280;25631;51.516;-0.470;2022-12-18T09:09:11;101590.84;;;0.05;40.95
39954;BME280;25631;51.516;-0.470;2022-12-18T09:11:47;101592.49;;;-0.09;41.01
39954;BME280;25631;51.516;-0.470;2022-12-18T09:14:23;101594.72;;;0.21;40.86
39954;BME280;25631;51.516;-0.470;2022-12-18T09:17:00;101601.10;;;-0.05;40.85
39954;BME280;25631;51.516;-0.470;2022-12-18T09:19:36;101603.11;;;0.10;40.85
39954;BME280;25631;51.516;-0.470;2022-12-18T09:22:13;101603.08;;;0.39;40.81
39954;BME280;25631;51.516;-0.470;2022-12-18T09:24:49;101611.73;;;0.44;40.81
39954;BME280;25631;51.516;-0.470;2022-12-18T09:27:25;101617.74;;;0.47;40.82
39954;BME280;25631;51.516;-0.470;2022-12-18T09:30:03;101622.62;;;0.22;40.82
39954;BME280;25631;51.516;-0.470;2022-12-18T09:32:40;101621.37;;;0.01;40.87
39954;BME280;25631;51.516;-0.470;2022-12-18T09:35:17;101620.72;;;0.10;40.86
39954;BME280;25631;51.516;-0.470;2022-12-18T09:37:53;101619.79;;;0.19;40.83
39954;BME280;25631;51.516;-0.470;2022-12-18T09:40:35;101608.33;;;0.37;40.78
39954;BME280;25631;51.516;-0.470;2022-12-18T09:43:17;101604.53;;;0.56;40.71
39954;BME280;25631;51.516;-0.470;2022-12-18T09:45:58;101612.17;;;0.42;40.62
39954;BME280;25631;51.516;-0.470;2022-12-18T09:48:39;101618.17;;;0.47;40.58
39954;BME280;25631;51.516;-0.470;2022-12-18T09:51:19;101625.73;;;0.56;40.55
39954;BME280;25631;51.516;-0.470;2022-12-18T09:54:03;101624.70;;;0.62;40.51
39954;BME280;25631;51.516;-0.470;2022-12-18T09:56:42;101621.82;;;0.65;40.49
39954;BME280;25631;51.516;-0.470;2022-12-18T09:59:23;101625.27;;;0.66;40.53
39954;BME280;25631;51.516;-0.470;2022-12-18T10:02:12;101622.54;;;0.75;40.48
39954;BME280;25631;51.516;-0.470;2022-12-18T10:04:59;101614.90;;;0.82;40.35
39954;BME280;25631;51.516;-0.470;2022-12-18T10:07:47;101605.75;;;0.72;40.21
39954;BME280;25631;51.516;-0.470;2022-12-18T10:10:34;101598.04;;;0.73;40.17
39954;BME280;25631;51.516;-0.470;2022-12-18T10:13:22;101601.25;;;0.76;40.22
39954;BME280;25631;51.516;-0.470;2022-12-18T10:16:09;101601.60;;;0.89;40.33
39954;BME280;25631;51.516;-0.470;2022-12-18T10:19:02;101598.90;;;0.98;40.36
39954;BME280;25631;51.516;-0.470;2022-12-18T10:21:44;101596.15;;;1.10;40.31
39954;BME280;25631;51.516;-0.470;2022-12-18T10:24:30;101591.49;;;1.07;40.19
39954;BME280;25631;51.516;-0.470;2022-12-18T10:27:15;101574.62;;;1.16;40.12
39954;BME280;25631;51.516;-0.470;2022-12-18T10:29:53;101560.29;;;1.12;40.13
39954;BME280;25631;51.516;-0.470;2022-12-18T10:32:30;101553.34;;;1.07;40.13
39954;BME280;25631;51.516;-0.470;2022-12-18T10:35:15;101554.33;;;0.72;40.15
39954;BME280;25631;51.516;-0.470;2022-12-18T10:38:04;101540.65;;;1.09;40.06
39954;BME280;25631;51.516;-0.470;2022-12-18T10:40:50;101540.39;;;1.13;39.90
39954;BME280;25631;51.516;-0.470;2022-12-18T10:43:28;101536.98;;;0.80;39.84
39954;BME280;25631;51.516;-0.470;2022-12-18T10:46:12;101529.66;;;1.19;39.91
39954;BME280;25631;51.516;-0.470;2022-12-18T10:48:54;101522.53;;;1.15;39.85
39954;BME280;25631;51.516;-0.470;2022-12-18T10:51:33;101518.31;;;0.99;39.93
39954;BME280;25631;51.516;-0.470;2022-12-18T10:54:15;101525.91;;;1.16;40.02
39954;BME280;25631;51.516;-0.470;2022-12-18T10:57:14;101525.70;;;0.74;40.03
39954;BME280;25631;51.516;-0.470;2022-12-18T10:59:52;101520.50;;;1.19;40.02
39954;BME280;25631;51.516;-0.470;2022-12-18T11:02:36;101505.83;;;1.34;40.08
39954;BME280;25631;51.516;-0.470;2022-12-18T11:05:25;101496.45;;;1.20;40.12
39954;BME280;25631;51.516;-0.470;2022-12-18T11:08:02;101492.78;;;1.48;40.15
39954;BME280;25631;51.516;-0.470;2022-12-18T11:10:39;101494.05;;;1.12;40.24
39954;BME280;25631;51.516;-0.470;2022-12-18T11:13:19;101487.70;;;1.38;40.26
39954;BME280;25631;51.516;-0.470;2022-12-18T11:15:57;101477.72;;;1.22;40.34
39954;BME280;25631;51.516;-0.470;2022-12-18T11:18:35;101471.09;;;1.31;40.35
39954;BME280;25631;51.516;-0.470;2022-12-18T11:21:13;101466.34;;;1.34;40.37
39954;BME280;25631;51.516;-0.470;2022-12-18T11:23:51;101456.73;;;1.77;40.41
39954;BME280;25631;51.516;-0.470;2022-12-18T11:26:34;101448.34;;;1.32;40.47
39954;BME280;25631;51.516;-0.470;2022-12-18T11:29:17;101441.37;;;1.56;40.56
39954;BME280;25631;51.516;-0.470;2022-12-18T11:32:20;101438.47;;;1.26;40.59
39954;BME280;25631;51.516;-0.470;2022-12-18T11:35:07;101441.64;;;1.54;40.77
39954;BME280;25631;51.516;-0.470;2022-12-18T11:37:50;101440.54;;;1.22;40.99
39954;BME280;25631;51.516;-0.470;2022-12-18T11:40:35;101434.82;;;1.17;41.26
39954;BME280;25631;51.516;-0.470;2022-12-18T11:43:15;101430.89;;;1.13;41.32
39954;BME280;25631;51.516;-0.470;2022-12-18T11:45:55;101427.74;;;1.05;41.65
39954;BME280;25631;51.516;-0.470;2022-12-18T11:48:38;101433.84;;;0.92;41.85
39954;BME280;25631;51.516;-0.470;2022-12-18T11:51:25;101439.15;;;0.89;41.99
39954;BME280;25631;51.516;-0.470;2022-12-18T11:54:12;101423.27;;;1.07;41.86
39954;BME280;25631;51.516;-0.470;2022-12-18T11:56:53;101412.64;;;0.88;42.11
39954;BME280;25631;51.516;-0.470;2022-12-18T11:59:38;101403.87;;;0.80;42.29
39954;BME280;25631;51.516;-0.470;2022-12-18T12:02:45;101393.28;;;0.72;42.61
39954;BME280;25631;51.516;-0.470;2022-12-18T12:05:34;101379.17;;;0.74;42.75
39954;BME280;25631;51.516;-0.470;2022-12-18T12:08:17;101363.35;;;0.63;42.91
39954;BME280;25631;51.516;-0.470;2022-12-18T12:11:02;101356.02;;;0.84;42.92
39954;BME280;25631;51.516;-0.470;2022-12-18T12:13:52;101355.98;;;0.90;43.15
39954;BME280;25631;51.516;-0.470;2022-12-18T12:16:37;101348.88;;;0.97;43.34
39954;BME280;25631;51.516;-0.470;2022-12-18T12:19:27;101338.48;;;0.78;43.54
39954;BME280;25631;51.516;-0.470;2022-12-18T12:22:16;101331.98;;;0.87;43.38
39954;BME280;25631;51.516;-0.470;2022-12-18T12:25:03;101329.04;;;0.58;43.65
39954;BME280;25631;51.516;-0.470;2022-12-18T12:27:52;101333.48;;;0.78;43.92
39954;BME280;25631;51.516;-0.470;2022-12-18T12:30:39;101332.59;;;0.70;43.96
39954;BME280;25631;51.516;-0.470;2022-12-18T12:33:33;101328.04;;;0.59;44.32
39954;BME280;25631;51.516;-0.470;2022-12-18T12:36:20;101331.02;;;0.41;44.60
39954;BME280;25631;51.516;-0.470;2022-12-18T12:39:03;101323.43;;;0.56;44.49
39954;BME280;25631;51.516;-0.470;2022-12-18T12:41:42;101318.49;;;0.60;44.51
39954;BME280;25631;51.516;-0.470;2022-12-18T12:44:25;101307.49;;;0.64;44.54
39954;BME280;25631;51.516;-0.470;2022-12-18T12:47:10;101306.61;;;0.62;44.83
39954;BME280;25631;51.516;-0.470;2022-12-18T12:49:49;101296.71;;;0.66;44.80
39954;BME280;25631;51.516;-0.470;2022-12-18T12:52:32;101289.51;;;0.60;44.89
39954;BME280;25631;51.516;-0.470;2022-12-18T12:55:16;101287.98;;;0.64;45.16
39954;BME280;25631;51.516;-0.470;2022-12-18T12:58:00;101285.26;;;0.70;45.08
39954;BME280;25631;51.516;-0.470;2022-12-18T13:00:46;101267.74;;;0.51;45.41
39954;BME280;25631;51.516;-0.470;2022-12-18T13:03:35;101259.93;;;0.66;45.37
39954;BME280;25631;51.516;-0.470;2022-12-18T13:06:27;101255.60;;;0.49;45.66
39954;BME280;25631;51.516;-0.470;2022-12-18T13:09:09;101254.86;;;0.44;45.73
39954;BME280;25631;51.516;-0.470;2022-12-18T13:11:47;101244.77;;;0.49;46.00
39954;BME280;25631;51.516;-0.470;2022-12-18T13:14:27;101231.05;;;0.65;45.96
39954;BME280;25631;51.516;-0.470;2022-12-18T13:17:37;101226.80;;;0.50;46.01
39954;BME280;25631;51.516;-0.470;2022-12-18T13:20:14;101224.88;;;0.49;46.04
39954;BME280;25631;51.516;-0.470;2022-12-18T13:22:51;101222.71;;;0.61;46.15
39954;BME280;25631;51.516;-0.470;2022-12-18T13:25:31;101218.93;;;0.41;46.24
39954;BME280;25631;51.516;-0.470;2022-12-18T13:28:10;101210.16;;;0.09;46.59
39954;BME280;25631;51.516;-0.470;2022-12-18T13:30:51;101201.87;;;0.62;46.41
39954;BME280;25631;51.516;-0.470;2022-12-18T13:33:42;101196.36;;;0.46;46.49
39954;BME280;25631;51.516;-0.470;2022-12-18T13:36:34;101194.49;;;0.73;46.31
39954;BME280;25631;51.516;-0.470;2022-12-18T13:39:25;101193.71;;;0.66;46.47
39954;BME280;25631;51.516;-0.470;2022-12-18T13:42:42;101185.32;;;0.86;46.31
39954;BME280;25631;51.516;-0.470;2022-12-18T13:46:01;101175.01;;;0.52;46.73
39954;BME280;25631;51.516;-0.470;2022-12-18T13:48:38;101167.21;;;0.44;46.76